Main page
Satellite images 10-day forecastsClimateMarine weather Cyclones Lightning AirportsFAQ Newsletter About
Weather : Europe Africa North America South America Asia Australia-Oceania Others
Languages Contact

Baia Mare, Romania

Baia Mare Airport

latitude: 47-40N, longitude: 023-35E, elevation: 218 m


METAR: LRBM 300500Z 25003KT 9999 SCT012 SCT035 16/15 Q1019
TAF: LRBM 300200Z 3003/3012 VRB04KT 9999 SCT040 TEMPO 3009/3012 SCT040CB

Time: 08:13 (05:13 UTC)

Current weather observation

The report was made 13 minutes ago, at 05:00 UTC
Wind 3 kt from the West/Southwest
Temperature 16°C
Humidity 94%
Pressure 1019 hPa
Visibility 10 km or more
Scattered clouds at a height of 1200 ft
Scattered clouds at a height of 3500 ft

Change units

Forecast

The report was made 3 hours and 13 minutes ago, at 02:00 UTC
Forecast valid from 30 at 03 UTC to 30 at 12 UTC
Wind 4 kt from variable directions
Visibility 10 km or more
Scattered clouds at a height of 4000 ft
Temporary
from 30 at 09 UTC to 30 at 12 UTC
Scattered clouds at a height of 4000 ft, Cumulonimbus.
The information on this site is subject to a disclaimer
Weather : Europe Africa North America South America Asia Australia-Oceania Others
Satellite images 10-day forecastsClimateMarine weather Cyclones Lightning AirportsFAQ Languages Contact Newsletter About